createdAt,value
2022-11-27T00:01:27.361Z,2.12
2022-11-27T00:03:55.298Z,2.18
2022-11-27T00:06:24.274Z,2.17
2022-11-27T00:08:51.336Z,2.24
2022-11-27T00:11:20.904Z,2.26
2022-11-27T00:13:48.135Z,2.24
2022-11-27T00:16:15.581Z,2.18
2022-11-27T00:18:43.577Z,2.15
2022-11-27T00:21:19.275Z,2.10
2022-11-27T00:23:45.944Z,2.11
2022-11-27T00:26:12.935Z,2.12
2022-11-27T00:28:39.716Z,2.13
2022-11-27T00:31:17.810Z,2.12
2022-11-27T00:33:44.633Z,2.15
2022-11-27T00:36:12.232Z,2.19
2022-11-27T00:38:39.599Z,2.18
2022-11-27T00:41:29.434Z,2.19
2022-11-27T00:43:56.947Z,2.17
2022-11-27T00:46:28.684Z,2.16
2022-11-27T00:49:00.188Z,2.14
2022-11-27T00:51:27.845Z,2.16
2022-11-27T00:53:55.146Z,2.17
2022-11-27T00:56:31.005Z,2.19
2022-11-27T00:58:58.486Z,2.22
2022-11-27T01:01:31.629Z,2.19
2022-11-27T01:03:59.877Z,2.20
2022-11-27T01:06:28.044Z,2.21
2022-11-27T01:08:54.853Z,2.25
2022-11-27T01:11:25.789Z,2.22
2022-11-27T01:13:53.793Z,2.25
2022-11-27T01:16:23.329Z,2.27
2022-11-27T01:18:51.457Z,2.26
2022-11-27T01:21:21.060Z,2.30
2022-11-27T01:23:48.804Z,2.30
2022-11-27T01:26:17.622Z,2.31
2022-11-27T01:28:44.997Z,2.32
2022-11-27T01:31:17.660Z,2.29
2022-11-27T01:33:45.344Z,2.22
2022-11-27T01:36:13.768Z,2.27
2022-11-27T01:38:40.877Z,2.33
2022-11-27T01:41:16.613Z,2.36
2022-11-27T01:43:47.798Z,2.36
2022-11-27T01:46:39.670Z,2.35
2022-11-27T01:49:09.219Z,2.33
2022-11-27T01:52:11.189Z,2.29
2022-11-27T01:54:43.902Z,2.37
2022-11-27T01:57:16.317Z,2.35
2022-11-27T01:59:43.136Z,2.37
2022-11-27T02:02:09.718Z,2.36
2022-11-27T02:04:36.336Z,2.35
2022-11-27T02:07:03.151Z,2.37
2022-11-27T02:09:30.613Z,2.37
2022-11-27T02:12:11.030Z,2.32
2022-11-27T02:14:43.630Z,2.31
2022-11-27T02:17:21.900Z,2.33
2022-11-27T02:19:57.209Z,2.36
2022-11-27T02:22:34.812Z,2.35
2022-11-27T02:25:23.931Z,2.33
2022-11-27T02:28:21.093Z,2.34
2022-11-27T02:30:54.184Z,2.36
2022-11-27T02:33:21.398Z,2.35
2022-11-27T02:35:56.699Z,2.34
2022-11-27T02:38:39.395Z,2.29
2022-11-27T02:41:11.644Z,2.27
2022-11-27T02:43:43.169Z,2.27
2022-11-27T02:46:10.941Z,2.25
2022-11-27T02:48:48.615Z,2.27
2022-11-27T02:51:19.624Z,2.32
2022-11-27T02:53:52.019Z,2.30
2022-11-27T02:56:22.612Z,2.31
2022-11-27T02:58:51.140Z,2.35
2022-11-27T03:01:21.828Z,2.34
2022-11-27T03:03:53.589Z,2.40
2022-11-27T03:06:29.188Z,2.40
2022-11-27T03:09:14.865Z,2.39
2022-11-27T03:11:41.956Z,2.37
2022-11-27T03:14:10.650Z,2.37
2022-11-27T03:16:57.017Z,2.37
2022-11-27T03:19:30.283Z,2.38
2022-11-27T03:22:00.077Z,2.37
2022-11-27T03:24:29.248Z,2.38
2022-11-27T03:26:58.567Z,2.28
2022-11-27T03:29:48.205Z,2.27
2022-11-27T03:32:15.144Z,2.29
2022-11-27T03:34:42.596Z,2.30
2022-11-27T03:37:09.499Z,2.26
2022-11-27T03:39:36.486Z,2.21
2022-11-27T03:42:09.067Z,2.22
2022-11-27T03:44:50.517Z,2.15
2022-11-27T03:47:50.578Z,2.12
2022-11-27T03:50:26.082Z,2.10
2022-11-27T03:53:04.592Z,2.14
2022-11-27T03:55:43.049Z,2.16
2022-11-27T03:58:22.060Z,2.12
2022-11-27T04:00:51.648Z,2.04
2022-11-27T04:03:24.840Z,2.07
2022-11-27T04:05:52.191Z,2.03
2022-11-27T04:08:18.772Z,2.01
2022-11-27T04:10:45.375Z,1.92
2022-11-27T04:13:11.917Z,1.99
2022-11-27T04:15:39.119Z,1.95
2022-11-27T04:18:06.213Z,1.92
2022-11-27T04:20:32.792Z,1.90
2022-11-27T04:22:59.303Z,1.84
2022-11-27T04:25:25.993Z,1.85
2022-11-27T04:27:52.710Z,1.83
2022-11-27T04:30:19.439Z,1.87
2022-11-27T04:32:46.025Z,1.87
2022-11-27T04:35:12.615Z,1.85
2022-11-27T04:37:39.208Z,1.84
2022-11-27T04:40:06.418Z,1.84
2022-11-27T04:42:32.993Z,1.83
2022-11-27T04:44:59.641Z,1.79
2022-11-27T04:47:26.265Z,1.84
2022-11-27T04:49:52.849Z,1.81
2022-11-27T04:52:19.521Z,1.78
2022-11-27T04:54:46.025Z,1.75
2022-11-27T04:57:12.621Z,1.76
2022-11-27T04:59:39.258Z,1.75
2022-11-27T05:02:05.818Z,1.77
2022-11-27T05:04:32.855Z,1.73
2022-11-27T05:06:59.400Z,1.69
2022-11-27T05:09:26.037Z,1.72
2022-11-27T05:11:52.614Z,1.73
2022-11-27T05:14:20.058Z,1.73
2022-11-27T05:16:54.736Z,1.68
2022-11-27T05:19:23.100Z,1.56
2022-11-27T05:21:50.893Z,1.51
2022-11-27T05:24:19.482Z,1.47
2022-11-27T05:26:46.566Z,1.48
2022-11-27T05:29:14.559Z,1.43
2022-11-27T05:31:41.385Z,1.42
2022-11-27T05:34:08.574Z,1.48
2022-11-27T05:36:36.817Z,1.44
2022-11-27T05:39:08.404Z,1.44
2022-11-27T05:41:36.946Z,1.41
2022-11-27T05:44:04.505Z,1.36
2022-11-27T05:46:31.326Z,1.33
2022-11-27T05:48:58.231Z,1.21
2022-11-27T05:51:25.126Z,1.19
2022-11-27T05:53:51.720Z,1.18
2022-11-27T05:56:18.530Z,1.18
2022-11-27T05:58:46.922Z,1.16
2022-11-27T06:01:15.199Z,1.18
2022-11-27T06:03:41.957Z,1.19
2022-11-27T06:06:11.444Z,1.20
2022-11-27T06:08:38.771Z,1.20
2022-11-27T06:11:10.355Z,1.19
2022-11-27T06:13:37.398Z,1.23
2022-11-27T06:16:12.155Z,1.25
2022-11-27T06:18:38.998Z,1.28
2022-11-27T06:21:07.420Z,1.31
2022-11-27T06:23:34.349Z,1.34
2022-11-27T06:26:13.557Z,1.33
2022-11-27T06:28:41.027Z,1.31
2022-11-27T06:31:16.019Z,1.19
2022-11-27T06:33:44.334Z,1.29
2022-11-27T06:36:10.930Z,1.26
2022-11-27T06:38:38.081Z,1.26
2022-11-27T06:41:10.630Z,1.29
2022-11-27T06:43:37.618Z,1.32
2022-11-27T06:46:06.007Z,1.26
2022-11-27T06:48:33.835Z,1.28
2022-11-27T06:51:05.883Z,1.29
2022-11-27T06:53:36.024Z,1.34
2022-11-27T06:56:04.650Z,1.33
2022-11-27T06:58:31.460Z,1.26
2022-11-27T07:00:59.224Z,1.32
2022-11-27T07:03:26.448Z,1.31
2022-11-27T07:05:53.466Z,1.24
2022-11-27T07:08:20.429Z,1.26
2022-11-27T07:10:46.956Z,1.33
2022-11-27T07:13:13.538Z,1.33
2022-11-27T07:15:40.074Z,1.37
2022-11-27T07:18:06.599Z,1.39
2022-11-27T07:20:33.259Z,1.43
2022-11-27T07:22:59.872Z,1.42
2022-11-27T07:25:26.390Z,1.44
2022-11-27T07:27:53.051Z,1.43
2022-11-27T07:30:19.592Z,1.41
2022-11-27T07:32:46.175Z,1.38
2022-11-27T07:35:12.976Z,1.37
2022-11-27T07:37:39.508Z,1.36
2022-11-27T07:40:06.946Z,1.41
2022-11-27T07:42:38.428Z,1.42
2022-11-27T07:45:09.588Z,1.43
2022-11-27T07:47:36.585Z,1.47
2022-11-27T07:50:03.511Z,1.51
2022-11-27T07:52:30.044Z,1.54
2022-11-27T07:54:56.778Z,1.51
2022-11-27T07:57:23.334Z,1.50
2022-11-27T07:59:49.841Z,1.47
2022-11-27T08:02:16.465Z,1.49
2022-11-27T08:04:43.420Z,1.48
2022-11-27T08:07:10.412Z,1.53
2022-11-27T08:09:37.947Z,1.59
2022-11-27T08:12:05.242Z,1.54
2022-11-27T08:14:31.872Z,1.63
2022-11-27T08:16:58.925Z,1.63
2022-11-27T08:19:25.516Z,1.66
2022-11-27T08:21:52.087Z,1.67
2022-11-27T08:24:18.656Z,1.70
2022-11-27T08:26:45.268Z,1.75
2022-11-27T08:29:12.809Z,1.76
2022-11-27T08:31:39.689Z,1.74
2022-11-27T08:34:06.294Z,1.76
2022-11-27T08:36:33.033Z,1.77
2022-11-27T08:38:59.616Z,1.79
2022-11-27T08:41:26.135Z,1.72
2022-11-27T08:43:52.804Z,1.74
2022-11-27T08:46:19.411Z,1.73
2022-11-27T08:48:46.066Z,1.78
2022-11-27T08:51:14.561Z,1.83
2022-11-27T08:53:41.780Z,1.80
2022-11-27T08:56:21.287Z,1.79
2022-11-27T08:58:48.464Z,1.84
2022-11-27T09:01:21.417Z,1.83
2022-11-27T09:03:48.713Z,1.85
2022-11-27T09:06:18.618Z,1.88
2022-11-27T09:08:45.717Z,1.91
2022-11-27T09:11:14.318Z,1.90
2022-11-27T09:13:42.050Z,1.98
2022-11-27T09:16:11.358Z,1.96
2022-11-27T09:18:38.414Z,1.98
2022-11-27T09:21:10.150Z,2.02
2022-11-27T09:23:40.147Z,2.04
2022-11-27T09:26:10.200Z,2.10
2022-11-27T09:28:37.805Z,2.10
2022-11-27T09:31:05.895Z,2.10
2022-11-27T09:33:35.213Z,2.11
2022-11-27T09:36:11.167Z,2.03
2022-11-27T09:38:38.384Z,2.11
2022-11-27T09:41:11.813Z,2.08
2022-11-27T09:43:49.585Z,2.12
2022-11-27T09:46:28.987Z,2.08
2022-11-27T09:48:59.789Z,2.12
2022-11-27T09:51:34.610Z,2.19
2022-11-27T09:54:15.881Z,2.14
2022-11-27T09:56:45.769Z,2.12
2022-11-27T09:59:17.320Z,2.23
2022-11-27T10:01:49.281Z,2.27
2022-11-27T10:04:20.376Z,2.31
2022-11-27T10:07:12.902Z,2.31
2022-11-27T10:09:54.768Z,2.28
2022-11-27T10:12:49.010Z,2.32
2022-11-27T10:15:24.383Z,2.30
2022-11-27T10:17:52.352Z,2.31
2022-11-27T10:20:28.748Z,2.35
2022-11-27T10:23:15.616Z,2.47
2022-11-27T10:26:02.454Z,2.44
2022-11-27T10:28:33.547Z,2.43
2022-11-27T10:31:06.464Z,2.47
2022-11-27T10:33:43.824Z,2.29
2022-11-27T10:36:22.079Z,2.44
2022-11-27T10:38:49.189Z,2.49
2022-11-27T10:41:48.072Z,2.45
2022-11-27T10:44:35.641Z,2.50
2022-11-27T10:47:05.646Z,2.69
2022-11-27T10:49:35.461Z,2.72
2022-11-27T10:52:02.069Z,2.74
2022-11-27T10:54:34.631Z,2.78
2022-11-27T10:57:28.983Z,2.62
2022-11-27T11:00:15.048Z,2.57
2022-11-27T11:02:42.341Z,2.57
2022-11-27T11:05:37.378Z,2.58
2022-11-27T11:08:19.743Z,2.55
2022-11-27T11:11:01.890Z,2.49
2022-11-27T11:13:40.649Z,2.33
2022-11-27T11:16:23.988Z,2.40
2022-11-27T11:18:55.725Z,2.48
2022-11-27T11:21:42.595Z,2.55
2022-11-27T11:24:23.395Z,2.68
2022-11-27T11:26:52.717Z,2.75
2022-11-27T11:29:34.367Z,2.70
2022-11-27T11:32:07.042Z,2.72
2022-11-27T11:34:34.514Z,2.70
2022-11-27T11:37:02.561Z,2.74
2022-11-27T11:40:16.240Z,2.79
2022-11-27T11:43:01.289Z,2.84
2022-11-27T11:45:32.839Z,2.90
2022-11-27T11:48:20.481Z,2.99
2022-11-27T11:51:01.435Z,2.99
2022-11-27T11:53:37.482Z,3.10
2022-11-27T11:56:22.829Z,3.04
2022-11-27T11:58:54.663Z,2.99
2022-11-27T12:01:28.548Z,2.94
2022-11-27T12:04:13.706Z,2.97
2022-11-27T12:07:01.640Z,2.91
2022-11-27T12:09:30.807Z,2.85
2022-11-27T12:12:15.884Z,2.78
2022-11-27T12:14:51.502Z,2.72
2022-11-27T12:17:31.405Z,2.72
2022-11-27T12:20:04.336Z,2.66
2022-11-27T12:22:48.468Z,2.67
2022-11-27T12:25:53.622Z,2.69
2022-11-27T12:28:59.139Z,2.65
2022-11-27T12:31:35.346Z,2.68
2022-11-27T12:34:27.971Z,2.62
2022-11-27T12:37:25.112Z,2.65
2022-11-27T12:40:08.992Z,2.66
2022-11-27T12:42:42.213Z,2.73
2022-11-27T12:45:34.461Z,2.73
2022-11-27T12:48:16.468Z,2.70
2022-11-27T12:50:53.836Z,2.74
2022-11-27T12:53:32.278Z,2.76
2022-11-27T12:56:21.028Z,2.83
2022-11-27T12:59:02.437Z,2.91
2022-11-27T13:01:35.164Z,2.90
2022-11-27T13:04:23.460Z,2.99
2022-11-27T13:07:08.055Z,3.04
2022-11-27T13:09:43.838Z,3.07
2022-11-27T13:12:17.159Z,3.14
2022-11-27T13:14:56.256Z,3.17
2022-11-27T13:17:34.206Z,3.21
2022-11-27T13:20:01.957Z,3.21
2022-11-27T13:22:36.072Z,3.16
2022-11-27T13:25:03.617Z,3.13
2022-11-27T13:27:34.451Z,3.06
2022-11-27T13:30:07.506Z,3.00
2022-11-27T13:32:47.377Z,3.03
2022-11-27T13:35:37.597Z,3.05
2022-11-27T13:38:14.868Z,3.01
2022-11-27T13:40:45.334Z,3.01
2022-11-27T13:43:46.866Z,3.09
2022-11-27T13:46:27.433Z,3.08
2022-11-27T13:48:57.642Z,3.03
2022-11-27T13:51:30.396Z,3.06
2022-11-27T13:54:29.155Z,3.08
2022-11-27T13:56:56.106Z,3.06
2022-11-27T13:59:25.205Z,3.08
2022-11-27T14:02:04.385Z,2.99
2022-11-27T14:04:32.662Z,3.01
2022-11-27T14:07:07.214Z,3.01
2022-11-27T14:09:41.707Z,3.00
2022-11-27T14:12:35.059Z,3.04
2022-11-27T14:15:21.568Z,3.06
2022-11-27T14:17:50.791Z,3.10
2022-11-27T14:20:17.420Z,3.09
2022-11-27T14:23:11.172Z,3.09
2022-11-27T14:25:39.461Z,3.08
2022-11-27T14:28:26.411Z,3.07
2022-11-27T14:31:01.380Z,3.03
2022-11-27T14:33:59.773Z,3.00
2022-11-27T14:36:31.864Z,2.98
2022-11-27T14:38:59.286Z,3.02
2022-11-27T14:41:27.671Z,3.05
2022-11-27T14:44:06.032Z,3.00
2022-11-27T14:46:35.502Z,3.00
2022-11-27T14:49:02.185Z,3.04
2022-11-27T14:51:37.724Z,3.03
2022-11-27T14:54:25.517Z,3.07
2022-11-27T14:56:52.929Z,3.06
2022-11-27T14:59:22.154Z,3.04
2022-11-27T15:02:22.259Z,3.04
2022-11-27T15:05:03.410Z,3.05
2022-11-27T15:07:36.583Z,3.04
2022-11-27T15:10:21.628Z,3.04
2022-11-27T15:12:49.139Z,3.06
2022-11-27T15:15:23.054Z,3.03
2022-11-27T15:17:53.810Z,3.01
2022-11-27T15:20:42.456Z,3.01
2022-11-27T15:23:29.692Z,3.01
2022-11-27T15:25:59.017Z,3.00
2022-11-27T15:28:32.646Z,2.97
2022-11-27T15:30:59.446Z,2.98
2022-11-27T15:33:31.029Z,2.93
2022-11-27T15:36:19.388Z,2.96
2022-11-27T15:38:46.604Z,2.92
2022-11-27T15:41:22.907Z,2.95
2022-11-27T15:43:49.922Z,2.95
2022-11-27T15:46:22.635Z,2.94
2022-11-27T15:48:49.472Z,2.94
2022-11-27T15:51:16.024Z,2.93
2022-11-27T15:53:42.638Z,2.93
2022-11-27T15:56:09.368Z,2.92
2022-11-27T15:58:35.954Z,2.94
2022-11-27T16:01:02.587Z,2.96
2022-11-27T16:03:29.119Z,2.93
2022-11-27T16:05:55.621Z,2.87
2022-11-27T16:08:22.172Z,2.85
2022-11-27T16:10:48.680Z,2.87
2022-11-27T16:13:15.230Z,2.86
2022-11-27T16:15:41.734Z,2.90
2022-11-27T16:18:08.384Z,2.90
2022-11-27T16:20:35.106Z,2.93
2022-11-27T16:23:01.654Z,2.93
2022-11-27T16:25:28.175Z,2.90
2022-11-27T16:28:00.946Z,2.90
2022-11-27T16:30:29.305Z,2.90
2022-11-27T16:32:55.881Z,2.89
2022-11-27T16:35:22.420Z,2.87
2022-11-27T16:37:49.024Z,2.84
2022-11-27T16:40:15.696Z,2.84
2022-11-27T16:42:42.372Z,2.85
2022-11-27T16:45:09.319Z,2.85
2022-11-27T16:47:36.933Z,2.80
2022-11-27T16:50:03.957Z,2.83
2022-11-27T16:52:30.539Z,2.83
2022-11-27T16:54:57.096Z,2.80
2022-11-27T16:57:23.640Z,2.80
2022-11-27T16:59:50.885Z,2.82
2022-11-27T17:02:17.479Z,2.80
2022-11-27T17:04:44.269Z,2.80
2022-11-27T17:07:11.088Z,2.79
2022-11-27T17:09:38.630Z,2.79
2022-11-27T17:12:05.477Z,2.80
2022-11-27T17:14:32.024Z,2.79
2022-11-27T17:16:58.689Z,2.80
2022-11-27T17:19:27.114Z,2.79
2022-11-27T17:21:53.627Z,2.77
2022-11-27T17:24:20.173Z,2.78
2022-11-27T17:26:48.058Z,2.78
2022-11-27T17:29:17.332Z,2.74
2022-11-27T17:31:44.319Z,2.69
2022-11-27T17:34:13.188Z,2.67
2022-11-27T17:36:42.081Z,2.68
2022-11-27T17:39:11.285Z,2.69
2022-11-27T17:41:39.830Z,2.71
2022-11-27T17:44:07.551Z,2.72
2022-11-27T17:46:34.881Z,2.74
2022-11-27T17:49:06.174Z,2.71
2022-11-27T17:51:34.490Z,2.70
2022-11-27T17:54:02.591Z,2.70
2022-11-27T17:56:29.965Z,2.69
2022-11-27T17:58:56.718Z,2.72
2022-11-27T18:01:25.057Z,2.73
2022-11-27T18:03:55.188Z,2.73
2022-11-27T18:06:22.909Z,2.74
2022-11-27T18:08:49.983Z,2.72
2022-11-27T18:11:20.704Z,2.75
2022-11-27T18:13:48.136Z,2.77
2022-11-27T18:16:20.561Z,2.76
2022-11-27T18:18:48.826Z,2.76
2022-11-27T18:21:18.703Z,2.80
2022-11-27T18:24:20.631Z,2.78
2022-11-27T18:27:00.353Z,2.80
2022-11-27T18:29:22.248Z,2.83
2022-11-27T18:31:50.968Z,2.81
2022-11-27T18:34:17.740Z,2.84
2022-11-27T18:36:45.112Z,2.83
2022-11-27T18:39:12.153Z,2.87
2022-11-27T18:41:39.036Z,2.87
2022-11-27T18:44:05.642Z,2.88
2022-11-27T18:46:32.448Z,2.90
2022-11-27T18:49:00.092Z,2.94
2022-11-27T18:51:26.681Z,2.92
2022-11-27T18:53:54.650Z,2.93
2022-11-27T18:56:26.463Z,2.94
2022-11-27T18:58:54.359Z,2.96
2022-11-27T19:01:26.941Z,2.99
2022-11-27T19:03:54.162Z,3.00
2022-11-27T19:06:23.669Z,2.99
2022-11-27T19:08:50.796Z,3.04
2022-11-27T19:11:21.867Z,3.02
2022-11-27T19:13:49.841Z,3.05
2022-11-27T19:16:19.477Z,3.08
2022-11-27T19:18:46.845Z,3.07
2022-11-27T19:21:19.120Z,3.08
2022-11-27T19:23:45.940Z,3.08
2022-11-27T19:26:21.774Z,3.10
2022-11-27T19:28:49.457Z,3.09
2022-11-27T19:31:16.933Z,3.11
2022-11-27T19:33:44.196Z,3.10
2022-11-27T19:36:14.476Z,3.08
2022-11-27T19:38:42.776Z,3.11
2022-11-27T19:41:11.019Z,3.14
2022-11-27T19:43:37.692Z,3.13
2022-11-27T19:46:17.456Z,3.15
2022-11-27T19:48:44.829Z,3.15
2022-11-27T19:51:11.943Z,3.11
2022-11-27T19:53:39.286Z,3.11
2022-11-27T19:56:06.876Z,3.09
2022-11-27T19:58:34.292Z,3.10
2022-11-27T20:01:19.384Z,3.06
2022-11-27T20:03:46.591Z,3.07
2022-11-27T20:06:18.633Z,3.06
2022-11-27T20:08:46.940Z,3.04
2022-11-27T20:11:16.915Z,3.04
2022-11-27T20:13:43.592Z,3.06
2022-11-27T20:16:17.167Z,3.09
2022-11-27T20:18:44.724Z,3.08
2022-11-27T20:21:22.511Z,3.08
2022-11-27T20:23:50.794Z,3.05
2022-11-27T20:26:20.744Z,3.07
2022-11-27T20:28:48.147Z,3.07
2022-11-27T20:31:37.777Z,3.04
2022-11-27T20:34:06.330Z,3.09
2022-11-27T20:36:39.085Z,3.06
2022-11-27T20:39:05.973Z,3.03
2022-11-27T20:41:32.621Z,3.07
2022-11-27T20:44:01.097Z,3.08
2022-11-27T20:46:28.527Z,3.11
2022-11-27T20:48:56.167Z,3.10
2022-11-27T20:51:28.407Z,3.12
2022-11-27T20:53:57.520Z,3.12
2022-11-27T20:56:24.550Z,3.12
2022-11-27T20:58:51.189Z,3.13
2022-11-27T21:01:27.341Z,3.14
2022-11-27T21:03:54.996Z,3.15
2022-11-27T21:06:24.268Z,3.10
2022-11-27T21:08:51.105Z,3.08
2022-11-27T21:11:29.341Z,3.14
2022-11-27T21:13:58.189Z,3.16
2022-11-27T21:16:27.570Z,3.18
2022-11-27T21:19:01.433Z,3.18
2022-11-27T21:21:29.028Z,3.17
2022-11-27T21:23:55.977Z,3.19
2022-11-27T21:26:23.381Z,3.15
2022-11-27T21:28:50.355Z,3.13
2022-11-27T21:31:22.837Z,3.06
2022-11-27T21:33:52.697Z,3.07
2022-11-27T21:36:21.694Z,3.00
2022-11-27T21:38:49.525Z,3.02
2022-11-27T21:41:17.781Z,3.01
2022-11-27T21:43:45.734Z,3.03
2022-11-27T21:46:17.080Z,3.06
2022-11-27T21:48:44.804Z,3.06
2022-11-27T21:51:12.800Z,3.07
2022-11-27T21:53:40.496Z,3.10
2022-11-27T21:56:08.423Z,3.09
2022-11-27T21:58:35.856Z,3.10
2022-11-27T22:01:03.996Z,3.07
2022-11-27T22:03:30.560Z,3.05
2022-11-27T22:06:02.077Z,3.09
2022-11-27T22:08:29.929Z,3.10
2022-11-27T22:10:56.594Z,3.11
2022-11-27T22:13:23.518Z,3.11
2022-11-27T22:15:50.114Z,3.09
2022-11-27T22:18:16.747Z,3.09
2022-11-27T22:20:43.309Z,3.01
2022-11-27T22:23:09.892Z,3.08
2022-11-27T22:25:36.405Z,3.07
2022-11-27T22:28:03.227Z,3.09
2022-11-27T22:30:29.933Z,3.08
2022-11-27T22:32:56.614Z,3.07
2022-11-27T22:35:23.464Z,3.11
2022-11-27T22:37:53.075Z,3.12
2022-11-27T22:40:20.378Z,3.16
2022-11-27T22:42:47.167Z,3.17
2022-11-27T22:45:13.736Z,3.16
2022-11-27T22:47:40.437Z,3.15
2022-11-27T22:50:07.428Z,3.16
2022-11-27T22:52:33.993Z,3.18
2022-11-27T22:55:00.511Z,3.18
2022-11-27T22:57:27.071Z,3.15
2022-11-27T22:59:53.665Z,3.12
2022-11-27T23:02:20.271Z,3.10
2022-11-27T23:04:46.959Z,3.08
2022-11-27T23:07:13.583Z,3.12
2022-11-27T23:09:40.207Z,3.11
2022-11-27T23:12:06.776Z,3.11
2022-11-27T23:14:33.743Z,3.11
2022-11-27T23:17:00.425Z,3.07
2022-11-27T23:19:27.040Z,3.06
2022-11-27T23:21:53.757Z,3.04
2022-11-27T23:24:20.406Z,3.04
2022-11-27T23:26:47.176Z,2.99
2022-11-27T23:29:14.267Z,2.97
2022-11-27T23:31:41.020Z,2.95
2022-11-27T23:34:11.668Z,2.92
2022-11-27T23:36:38.652Z,2.90
2022-11-27T23:39:07.717Z,2.86
2022-11-27T23:41:34.688Z,2.85
2022-11-27T23:44:05.969Z,2.83
2022-11-27T23:46:32.578Z,2.82
2022-11-27T23:49:00.635Z,2.83
2022-11-27T23:51:30.605Z,2.80
2022-11-27T23:53:58.187Z,2.78
2022-11-27T23:56:27.547Z,2.84
2022-11-27T23:58:55.628Z,2.85
